createdAt,value
2022-12-16T00:02:06.263Z,18.15
2022-12-16T00:07:04.551Z,17.70
2022-12-16T00:12:02.743Z,17.67
2022-12-16T00:17:00.985Z,14.88
2022-12-16T00:22:00.588Z,23.05
2022-12-16T00:26:58.878Z,45.55
2022-12-16T00:31:57.211Z,41.40
2022-12-16T00:36:55.743Z,20.17
2022-12-16T00:41:55.300Z,25.25
2022-12-16T00:46:53.463Z,13.77
2022-12-16T00:51:53.304Z,15.60
2022-12-16T00:56:53.513Z,18.42
2022-12-16T01:01:53.643Z,18.17
2022-12-16T01:06:54.711Z,12.90
2022-12-16T01:11:53.505Z,18.75
2022-12-16T01:16:54.787Z,21.98
2022-12-16T01:21:53.030Z,17.58
2022-12-16T01:26:51.822Z,34.75
2022-12-16T01:31:50.430Z,20.65
2022-12-16T01:36:49.986Z,14.80
2022-12-16T01:41:48.679Z,20.67
2022-12-16T01:46:50.502Z,25.98
2022-12-16T01:51:55.273Z,30.48
2022-12-16T02:01:52.006Z,33.83
2022-12-16T02:06:52.108Z,21.10
2022-12-16T02:12:00.678Z,20.27
2022-12-16T02:17:01.248Z,18.58
2022-12-16T02:22:08.773Z,12.23
2022-12-16T02:27:36.822Z,22.77
2022-12-16T02:32:41.060Z,23.77
2022-12-16T02:37:42.275Z,25.20
2022-12-16T02:42:43.032Z,42.40
2022-12-16T02:47:42.633Z,30.30
2022-12-16T02:52:40.909Z,36.13
2022-12-16T02:57:45.608Z,28.50
2022-12-16T03:02:48.941Z,28.55
2022-12-16T03:07:48.599Z,35.60
2022-12-16T03:12:47.341Z,40.22
2022-12-16T03:17:47.954Z,26.52
2022-12-16T03:22:47.972Z,35.13
2022-12-16T03:27:49.899Z,24.85
2022-12-16T03:32:53.284Z,43.03
2022-12-16T03:37:52.800Z,34.38
2022-12-16T03:42:52.530Z,43.15
2022-12-16T03:47:53.169Z,60.60
2022-12-16T03:52:51.299Z,42.67
2022-12-16T03:57:49.919Z,31.88
2022-12-16T04:02:48.742Z,75.63
2022-12-16T04:07:48.473Z,68.28
2022-12-16T04:13:04.082Z,60.70
2022-12-16T04:18:19.429Z,52.03
2022-12-16T04:23:37.201Z,88.63
2022-12-16T04:28:35.389Z,48.88
2022-12-16T04:33:51.324Z,98.65
2022-12-16T04:39:08.244Z,65.85
2022-12-16T04:44:24.260Z,81.30
2022-12-16T04:49:39.820Z,80.57
2022-12-16T04:54:57.134Z,87.65
2022-12-16T05:00:12.412Z,93.47
2022-12-16T05:05:26.964Z,63.53
2022-12-16T05:10:44.135Z,50.65
2022-12-16T05:15:59.583Z,86.78
2022-12-16T05:21:16.124Z,76.95
2022-12-16T05:26:33.320Z,113.35
2022-12-16T05:31:48.643Z,57.65
2022-12-16T05:37:04.185Z,23.23
2022-12-16T05:42:21.371Z,24.63
2022-12-16T05:47:36.949Z,50.65
2022-12-16T05:52:54.726Z,20.92
2022-12-16T05:58:12.101Z,40.08
2022-12-16T06:03:27.583Z,19.25
2022-12-16T06:08:43.028Z,72.07
2022-12-16T06:14:05.828Z,67.80
2022-12-16T06:19:21.276Z,106.18
2022-12-16T06:24:36.648Z,74.35
2022-12-16T06:29:54.085Z,59.40
2022-12-16T06:35:09.398Z,75.35
2022-12-16T06:40:22.014Z,50.55
2022-12-16T06:45:38.972Z,96.93
2022-12-16T06:50:55.690Z,85.32
2022-12-16T06:56:11.234Z,68.53
2022-12-16T07:01:28.591Z,72.80
2022-12-16T07:06:44.679Z,70.35
2022-12-16T07:12:08.595Z,76.30
2022-12-16T07:17:25.536Z,68.55
2022-12-16T07:22:40.931Z,80.80
2022-12-16T07:27:58.811Z,79.30
2022-12-16T07:33:16.111Z,67.32
2022-12-16T07:38:31.439Z,115.40
2022-12-16T07:43:46.861Z,155.60
2022-12-16T07:49:04.017Z,72.32
2022-12-16T07:54:19.363Z,95.85
2022-12-16T07:59:34.723Z,185.20
2022-12-16T08:04:51.887Z,69.47
2022-12-16T08:10:07.316Z,88.18
2022-12-16T08:15:22.517Z,71.22
2022-12-16T08:20:39.809Z,72.57
2022-12-16T08:25:55.419Z,88.43
2022-12-16T08:36:28.092Z,77.10
2022-12-16T08:41:43.352Z,44.63
2022-12-16T08:46:58.814Z,107.78
2022-12-16T08:52:18.283Z,83.70
2022-12-16T08:57:33.809Z,50.17
2022-12-16T09:02:49.496Z,75.18
2022-12-16T09:08:06.928Z,67.50
2022-12-16T09:13:26.553Z,78.57
2022-12-16T09:18:42.028Z,75.10
2022-12-16T09:23:59.029Z,96.93
2022-12-16T09:29:14.347Z,129.88
2022-12-16T09:34:29.839Z,92.88
2022-12-16T09:39:46.881Z,111.43
2022-12-16T09:45:06.215Z,93.47
2022-12-16T09:50:33.618Z,78.20
2022-12-16T09:55:51.828Z,130.27
2022-12-16T10:01:07.832Z,93.93
2022-12-16T10:06:25.911Z,82.15
2022-12-16T10:11:47.942Z,53.03
2022-12-16T10:17:07.820Z,84.65
2022-12-16T10:22:28.344Z,97.15
2022-12-16T10:27:49.442Z,130.02
2022-12-16T10:33:06.466Z,48.03
2022-12-16T10:38:23.957Z,40.10
2022-12-16T10:43:50.039Z,78.40
2022-12-16T10:49:06.485Z,66.55
2022-12-16T10:54:31.853Z,70.45
2022-12-16T10:59:55.003Z,53.75
2022-12-16T11:05:22.080Z,73.35
2022-12-16T11:10:44.981Z,47.60
2022-12-16T11:16:08.744Z,39.67
2022-12-16T11:21:27.316Z,46.58
2022-12-16T11:26:42.689Z,50.50
2022-12-16T11:32:01.475Z,48.63
2022-12-16T11:37:21.008Z,41.90
2022-12-16T11:42:38.299Z,66.97
2022-12-16T11:47:56.838Z,36.70
2022-12-16T11:53:14.194Z,42.75
2022-12-16T11:58:34.525Z,37.90
2022-12-16T12:03:55.778Z,48.78
2022-12-16T12:09:15.499Z,58.38
2022-12-16T12:14:35.774Z,70.88
2022-12-16T12:19:57.980Z,97.78
2022-12-16T12:25:20.003Z,54.17
2022-12-16T12:30:37.494Z,49.83
2022-12-16T12:36:02.740Z,44.85
2022-12-16T12:41:32.069Z,86.05
2022-12-16T12:47:04.570Z,85.60
2022-12-16T12:52:25.451Z,109.03
2022-12-16T12:57:42.980Z,137.93
2022-12-16T13:03:02.918Z,214.50
2022-12-16T13:08:33.498Z,78.57
2022-12-16T13:13:51.648Z,110.35
2022-12-16T13:19:09.858Z,157.60
2022-12-16T13:24:38.279Z,53.47
2022-12-16T13:29:56.143Z,49.45
2022-12-16T13:35:17.582Z,104.75
2022-12-16T13:40:36.170Z,92.78
2022-12-16T13:45:54.808Z,55.13
2022-12-16T13:51:18.494Z,92.53
2022-12-16T13:56:36.915Z,106.65
2022-12-16T14:01:56.461Z,69.70
2022-12-16T14:07:12.592Z,110.53
2022-12-16T14:12:33.215Z,59.13
2022-12-16T14:17:53.482Z,85.70
2022-12-16T14:23:54.667Z,438.95
2022-12-16T14:29:04.088Z,103.32
2022-12-16T14:34:22.097Z,120.97
2022-12-16T14:39:39.998Z,108.32
2022-12-16T14:44:56.499Z,159.38
2022-12-16T14:50:13.687Z,94.13
2022-12-16T14:55:31.053Z,68.85
2022-12-16T15:00:47.716Z,114.30
2022-12-16T15:06:05.054Z,146.57
2022-12-16T15:11:21.923Z,202.32
2022-12-16T15:16:42.718Z,126.28
2022-12-16T15:22:01.035Z,88.07
2022-12-16T15:27:31.984Z,170.63
2022-12-16T15:32:48.521Z,132.88
2022-12-16T15:38:05.764Z,191.85
2022-12-16T15:43:21.203Z,149.38
2022-12-16T15:48:38.632Z,272.40
2022-12-16T15:53:56.539Z,145.90
2022-12-16T15:59:31.534Z,195.68
2022-12-16T16:04:48.184Z,145.80
2022-12-16T16:10:05.235Z,158.13
2022-12-16T16:15:21.113Z,153.88
2022-12-16T16:20:45.938Z,195.88
2022-12-16T16:26:04.137Z,130.35
2022-12-16T16:31:19.644Z,164.25
2022-12-16T16:36:34.983Z,126.95
2022-12-16T16:41:52.271Z,56.83
2022-12-16T16:47:07.748Z,353.42
2022-12-16T16:52:23.547Z,130.70
2022-12-16T16:57:40.832Z,115.60
2022-12-16T17:02:56.512Z,247.00
2022-12-16T17:08:12.607Z,196.25
2022-12-16T17:13:29.961Z,181.23
2022-12-16T17:18:50.538Z,161.23
2022-12-16T17:24:08.356Z,158.40
2022-12-16T17:29:25.589Z,75.50
2022-12-16T17:34:41.069Z,111.40
2022-12-16T17:39:56.558Z,102.55
2022-12-16T17:45:13.846Z,89.03
2022-12-16T17:50:29.187Z,92.30
2022-12-16T17:55:44.593Z,149.02
2022-12-16T18:01:01.456Z,184.52
2022-12-16T18:06:17.269Z,190.23
2022-12-16T18:11:38.458Z,185.30
2022-12-16T18:17:10.650Z,83.13
2022-12-16T18:22:25.979Z,116.72
2022-12-16T18:27:41.270Z,177.63
2022-12-16T18:32:58.192Z,76.75
2022-12-16T18:38:16.610Z,89.07
2022-12-16T18:43:28.834Z,200.10
2022-12-16T18:48:45.996Z,242.38
2022-12-16T18:54:01.832Z,299.40
2022-12-16T18:59:17.514Z,195.25
2022-12-16T19:09:50.140Z,135.32
2022-12-16T19:15:05.471Z,94.53
2022-12-16T19:20:20.861Z,111.30
2022-12-16T19:25:38.091Z,135.77
2022-12-16T19:30:53.528Z,41.95
2022-12-16T19:36:13.732Z,95.15
2022-12-16T19:41:34.002Z,56.85
2022-12-16T19:46:49.384Z,78.35
2022-12-16T19:52:04.769Z,85.07
2022-12-16T19:57:22.060Z,106.82
2022-12-16T20:02:37.540Z,173.10
2022-12-16T20:08:09.202Z,269.33
2022-12-16T20:13:39.723Z,250.85
2022-12-16T20:18:56.085Z,149.07
2022-12-16T20:24:11.558Z,222.70
2022-12-16T20:29:28.615Z,315.27
2022-12-16T20:34:44.012Z,417.40
2022-12-16T20:39:59.846Z,300.27
2022-12-16T20:45:31.260Z,113.57
2022-12-16T20:50:47.230Z,174.60
2022-12-16T20:56:02.676Z,74.80
2022-12-16T21:01:19.984Z,267.95
2022-12-16T21:06:35.443Z,149.05
2022-12-16T21:11:50.792Z,113.28
2022-12-16T21:17:08.945Z,87.85
2022-12-16T21:22:24.842Z,75.75
2022-12-16T21:27:40.339Z,132.50
2022-12-16T21:32:57.600Z,216.15
2022-12-16T21:38:13.286Z,215.00
2022-12-16T21:48:45.653Z,152.35
2022-12-16T21:54:06.353Z,63.00
2022-12-16T21:59:23.639Z,82.63
2022-12-16T22:04:40.786Z,116.13
2022-12-16T22:09:56.411Z,86.25
2022-12-16T22:15:11.136Z,305.80
2022-12-16T22:20:28.746Z,489.77
2022-12-16T22:25:44.173Z,298.92
2022-12-16T22:30:59.456Z,408.10
2022-12-16T22:36:19.679Z,380.92
2022-12-16T22:41:34.994Z,416.77
2022-12-16T22:46:50.986Z,606.50
2022-12-16T22:52:08.816Z,585.53
2022-12-16T22:57:24.865Z,254.65
2022-12-16T23:02:40.290Z,286.80
2022-12-16T23:07:57.280Z,186.25
2022-12-16T23:13:12.825Z,72.70
2022-12-16T23:18:28.609Z,71.18
2022-12-16T23:23:45.685Z,67.25
2022-12-16T23:29:01.644Z,85.57
2022-12-16T23:34:17.612Z,55.58
2022-12-16T23:39:34.679Z,77.78
2022-12-16T23:44:56.414Z,82.43
2022-12-16T23:50:15.745Z,66.90
2022-12-16T23:55:32.935Z,51.08
